createdAt,value
2019-02-21T00:02:21.391Z,4.20
2019-02-21T00:04:49.849Z,4.20
2019-02-21T00:07:18.351Z,4.20
2019-02-21T00:09:47.067Z,4.10
2019-02-21T00:12:15.527Z,4.10
2019-02-21T00:14:44.021Z,4.10
2019-02-21T00:17:12.482Z,4.10
2019-02-21T00:19:40.973Z,4.10
2019-02-21T00:22:09.441Z,4.10
2019-02-21T00:24:39.949Z,4.10
2019-02-21T00:27:08.104Z,4.20
2019-02-21T00:29:36.567Z,4.20
2019-02-21T00:32:05.110Z,4.20
2019-02-21T00:34:33.599Z,4.20
2019-02-21T00:37:02.138Z,4.20
2019-02-21T00:39:30.618Z,4.20
2019-02-21T00:41:59.102Z,4.20
2019-02-21T00:44:27.558Z,4.10
2019-02-21T00:46:56.035Z,4.10
2019-02-21T00:49:24.495Z,4.20
2019-02-21T00:51:52.961Z,4.10
2019-02-21T00:54:21.427Z,4.00
2019-02-21T00:56:49.905Z,3.90
2019-02-21T00:59:18.367Z,3.90
2019-02-21T01:01:46.885Z,3.90
2019-02-21T01:04:15.377Z,3.90
2019-02-21T01:06:44.223Z,3.80
2019-02-21T01:09:12.757Z,3.80
2019-02-21T01:11:41.209Z,3.80
2019-02-21T01:14:09.762Z,3.70
2019-02-21T01:16:38.247Z,3.80
2019-02-21T01:19:07.128Z,3.80
2019-02-21T01:21:35.591Z,3.80
2019-02-21T01:24:04.977Z,3.80
2019-02-21T01:26:33.895Z,3.80
2019-02-21T01:29:02.365Z,3.90
2019-02-21T01:31:30.881Z,3.80
2019-02-21T01:33:59.657Z,3.80
2019-02-21T01:36:28.135Z,3.80
2019-02-21T01:38:56.595Z,3.80
2019-02-21T01:41:25.142Z,3.90
2019-02-21T01:43:53.605Z,3.80
2019-02-21T01:46:22.083Z,3.90
2019-02-21T01:48:50.545Z,3.80
2019-02-21T01:51:19.039Z,3.80
2019-02-21T01:53:47.499Z,3.70
2019-02-21T01:56:15.983Z,3.70
2019-02-21T01:58:44.443Z,3.70
2019-02-21T02:01:12.939Z,3.60
2019-02-21T02:03:41.416Z,3.60
2019-02-21T02:06:09.880Z,3.60
2019-02-21T04:51:23.476Z,3.40
2019-02-21T04:53:52.965Z,3.30
2019-02-21T04:56:21.466Z,3.30
2019-02-21T04:58:50.001Z,3.30
2019-02-21T05:01:18.560Z,3.30
2019-02-21T05:03:47.028Z,3.20
2019-02-21T05:06:15.522Z,3.20
2019-02-21T05:08:44.007Z,3.20
2019-02-21T05:11:12.476Z,3.10
2019-02-21T05:13:40.941Z,3.20
2019-02-21T05:16:09.441Z,3.10
2019-02-21T05:18:37.930Z,3.20
2019-02-21T05:21:06.435Z,3.20
2019-02-21T05:23:36.843Z,3.20
2019-02-21T05:26:06.162Z,3.20
2019-02-21T05:28:41.210Z,3.30
2019-02-21T05:31:11.083Z,3.30
2019-02-21T05:37:07.063Z,3.20
2019-02-21T05:39:49.177Z,3.10
2019-02-21T05:42:40.291Z,3.10
2019-02-21T05:45:13.177Z,3.10
2019-02-21T05:47:46.082Z,3.20
2019-02-21T05:50:39.601Z,3.20
2019-02-21T05:53:12.407Z,3.20
2019-02-21T05:56:01.100Z,3.10
2019-02-21T05:58:48.928Z,3.20
2019-02-21T06:01:39.699Z,3.40
2019-02-21T06:04:36.281Z,3.50
2019-02-21T06:07:12.201Z,3.60
2019-02-21T06:12:33.537Z,3.70
2019-02-21T06:15:01.539Z,3.70
2019-02-21T06:17:49.287Z,3.70
2019-02-21T06:20:33.731Z,3.80
2019-02-21T06:23:10.098Z,3.70
2019-02-21T06:25:51.919Z,3.70
2019-02-21T06:28:19.155Z,3.70
2019-02-21T06:30:56.618Z,3.70
2019-02-21T06:33:25.107Z,3.70
2019-02-21T06:35:54.517Z,3.80
2019-02-21T06:38:24.579Z,3.80
2019-02-21T06:40:53.199Z,3.90
2019-02-21T06:43:21.681Z,3.90
2019-02-21T06:45:50.544Z,4.00
2019-02-21T06:48:19.055Z,4.20
2019-02-21T06:50:47.777Z,4.30
2019-02-21T06:53:16.526Z,4.30
2019-02-21T06:55:46.395Z,4.30
2019-02-21T06:58:14.863Z,4.20
2019-02-21T07:00:46.176Z,4.20
2019-02-21T07:03:16.123Z,4.20
2019-02-21T07:05:44.969Z,4.30
2019-02-21T07:08:13.547Z,4.40
2019-02-21T07:10:42.033Z,4.40
2019-02-21T07:13:10.581Z,4.50
2019-02-21T07:15:40.061Z,4.50
2019-02-21T07:18:11.119Z,4.50
2019-02-21T07:20:39.921Z,4.50
2019-02-21T07:23:11.073Z,4.60
2019-02-21T07:25:43.029Z,4.60
2019-02-21T07:28:15.353Z,4.60
2019-02-21T07:30:45.215Z,4.70
2019-02-21T07:33:13.822Z,4.70
2019-02-21T07:35:42.308Z,4.80
2019-02-21T07:38:10.808Z,4.70
2019-02-21T07:40:39.383Z,4.70
2019-02-21T07:43:08.903Z,4.70
2019-02-21T07:45:37.381Z,4.60
2019-02-21T07:48:05.932Z,4.70
2019-02-21T07:50:35.699Z,4.70
2019-02-21T07:53:04.399Z,4.60
2019-02-21T07:55:32.901Z,4.70
2019-02-21T07:58:03.873Z,4.90
2019-02-21T08:00:31.677Z,4.80
2019-02-21T08:03:00.148Z,4.90
2019-02-21T08:05:29.584Z,4.80
2019-02-21T08:07:58.096Z,4.80
2019-02-21T08:10:33.517Z,4.90
2019-02-21T08:12:56.883Z,4.90
2019-02-21T08:15:27.573Z,4.90
2019-02-21T08:17:55.670Z,4.90
2019-02-21T08:20:33.447Z,4.90
2019-02-21T08:22:54.473Z,5.10
2019-02-21T08:25:23.950Z,5.30
2019-02-21T08:27:52.452Z,5.30
2019-02-21T08:30:21.006Z,5.30
2019-02-21T08:32:51.161Z,5.20
2019-02-21T08:35:19.984Z,5.20
2019-02-21T08:37:50.483Z,5.20
2019-02-21T08:40:19.418Z,5.30
2019-02-21T08:42:47.893Z,5.30
2019-02-21T08:45:17.843Z,5.40
2019-02-21T08:47:46.521Z,5.50
2019-02-21T08:50:15.005Z,5.40
2019-02-21T08:52:43.517Z,5.70
2019-02-21T08:55:12.157Z,5.60
2019-02-21T08:57:41.642Z,5.90
2019-02-21T09:00:15.236Z,5.90
2019-02-21T09:02:45.033Z,5.90
2019-02-21T09:05:14.272Z,5.90
2019-02-21T09:07:42.942Z,5.80
2019-02-21T09:10:12.586Z,5.90
2019-02-21T09:12:41.197Z,5.90
2019-02-21T09:15:17.204Z,5.90
2019-02-21T09:17:45.686Z,5.90
2019-02-21T09:20:14.323Z,5.90
2019-02-21T09:22:43.936Z,5.90
2019-02-21T09:25:14.174Z,5.90
2019-02-21T09:27:42.734Z,5.90
2019-02-21T09:30:16.965Z,6.20
2019-02-21T09:32:45.568Z,6.40
2019-02-21T09:35:15.440Z,6.40
2019-02-21T09:37:43.934Z,6.40
2019-02-21T09:40:14.317Z,6.40
2019-02-21T09:42:42.803Z,6.40
2019-02-21T09:45:16.568Z,6.40
2019-02-21T09:47:45.170Z,6.40
2019-02-21T09:50:13.983Z,6.60
2019-02-21T09:52:42.449Z,6.80
2019-02-21T09:55:16.461Z,6.80
2019-02-21T09:57:46.736Z,6.90
2019-02-21T10:00:18.253Z,6.90
2019-02-21T10:05:22.561Z,7.00
2019-02-21T10:07:51.301Z,7.10
2019-02-21T10:10:19.858Z,7.40
2019-02-21T10:12:48.367Z,7.40
2019-02-21T10:15:18.012Z,7.30
2019-02-21T10:17:46.491Z,7.40
2019-02-21T10:20:17.434Z,7.20
2019-02-21T10:22:45.977Z,7.30
2019-02-21T10:25:23.372Z,7.40
2019-02-21T10:27:52.195Z,7.40
2019-02-21T10:30:22.685Z,7.70
2019-02-21T10:32:52.160Z,7.80
2019-02-21T10:35:20.775Z,8.00
2019-02-21T10:37:49.315Z,8.00
2019-02-21T10:40:18.911Z,7.90
2019-02-21T10:42:47.814Z,7.80
2019-02-21T10:45:18.886Z,7.80
2019-02-21T10:47:48.721Z,7.90
2019-02-21T10:50:20.810Z,7.80
2019-02-21T10:53:08.994Z,7.60
2019-02-21T10:55:37.618Z,7.80
2019-02-21T10:58:06.107Z,8.00
2019-02-21T11:00:34.678Z,8.00
2019-02-21T11:03:03.950Z,8.00
2019-02-21T11:05:32.521Z,8.00
2019-02-21T11:08:02.071Z,8.00
2019-02-21T11:10:31.034Z,8.00
2019-02-21T11:12:59.608Z,8.00
2019-02-21T11:15:28.177Z,8.20
2019-02-21T11:17:56.745Z,8.30
2019-02-21T11:20:25.339Z,8.30
2019-02-21T11:22:53.813Z,8.20
2019-02-21T11:25:22.375Z,8.30
2019-02-21T11:27:50.945Z,8.20
2019-02-21T11:30:20.478Z,8.10
2019-02-21T11:32:49.148Z,8.30
2019-02-21T11:35:17.821Z,8.40
2019-02-21T11:37:47.399Z,8.40
2019-02-21T11:40:18.988Z,8.50
2019-02-21T11:42:47.818Z,8.60
2019-02-21T11:45:18.140Z,8.70
2019-02-21T11:47:46.968Z,8.70
2019-02-21T11:50:17.563Z,8.70
2019-02-21T11:52:51.859Z,8.70
2019-02-21T11:55:25.812Z,8.70
2019-02-21T11:57:54.393Z,8.80
2019-02-21T12:00:28.157Z,8.80
2019-02-21T12:02:57.058Z,8.80
2019-02-21T12:05:31.373Z,8.80
2019-02-21T12:07:55.916Z,8.90
2019-02-21T12:10:24.404Z,8.90
2019-02-21T12:12:52.986Z,8.80
2019-02-21T12:15:21.626Z,8.80
2019-02-21T12:17:50.493Z,8.90
2019-02-21T12:20:20.151Z,8.90
2019-02-21T12:22:48.812Z,8.90
2019-02-21T12:25:22.298Z,8.90
2019-02-21T12:27:50.877Z,8.80
2019-02-21T12:30:20.217Z,8.90
2019-02-21T12:32:48.837Z,9.00
2019-02-21T12:35:28.812Z,8.90
2019-02-21T12:37:48.834Z,8.90
2019-02-21T12:40:19.111Z,9.00
2019-02-21T12:42:48.662Z,9.00
2019-02-21T12:45:19.274Z,9.00
2019-02-21T12:47:53.175Z,9.00
2019-02-21T12:50:18.207Z,9.10
2019-02-21T12:52:47.122Z,9.10
2019-02-21T12:55:27.338Z,9.10
2019-02-21T12:57:46.265Z,9.00
2019-02-21T13:00:19.382Z,9.00
2019-02-21T13:02:47.910Z,9.00
2019-02-21T13:05:17.540Z,9.00
2019-02-21T13:07:46.137Z,9.10
2019-02-21T13:10:20.131Z,9.00
2019-02-21T13:12:48.622Z,9.00
2019-02-21T13:15:17.188Z,9.00
2019-02-21T13:17:46.733Z,9.10
2019-02-21T13:20:15.759Z,9.10
2019-02-21T13:22:44.247Z,9.10
2019-02-21T13:25:18.334Z,9.10
2019-02-21T13:27:46.965Z,9.10
2019-02-21T13:30:17.859Z,9.10
2019-02-21T13:32:47.434Z,8.90
2019-02-21T13:35:16.011Z,9.00
2019-02-21T13:37:44.511Z,9.00
2019-02-21T13:40:16.629Z,9.10
2019-02-21T13:42:45.325Z,9.10
2019-02-21T13:45:17.541Z,9.10
2019-02-21T13:47:45.856Z,9.10
2019-02-21T13:50:16.777Z,9.10
2019-02-21T13:52:45.678Z,9.10
2019-02-21T13:55:15.444Z,9.10
2019-02-21T13:57:44.024Z,9.10
2019-02-21T14:00:15.558Z,9.10
2019-02-21T14:02:44.048Z,9.20
2019-02-21T14:05:12.694Z,9.10
2019-02-21T14:07:41.199Z,9.10
2019-02-21T14:10:11.983Z,9.10
2019-02-21T14:12:41.718Z,9.20
2019-02-21T14:15:13.485Z,9.20
2019-02-21T14:17:41.951Z,9.30
2019-02-21T14:20:11.651Z,9.30
2019-02-21T14:22:40.527Z,9.30
2019-02-21T14:25:10.751Z,9.40
2019-02-21T14:27:40.374Z,9.30
2019-02-21T14:30:12.037Z,9.40
2019-02-21T14:32:40.640Z,9.40
2019-02-21T14:35:11.365Z,9.30
2019-02-21T14:37:39.937Z,9.40
2019-02-21T14:40:11.064Z,9.40
2019-02-21T14:42:40.613Z,9.30
2019-02-21T14:45:14.463Z,9.30
2019-02-21T14:47:43.365Z,9.30
2019-02-21T14:50:12.835Z,9.20
2019-02-21T14:52:41.396Z,9.20
2019-02-21T14:55:12.408Z,9.30
2019-02-21T14:57:41.461Z,9.20
2019-02-21T15:00:21.941Z,9.30
2019-02-21T15:02:50.485Z,9.30
2019-02-21T15:05:19.819Z,9.30
2019-02-21T15:07:48.743Z,9.30
2019-02-21T15:10:17.313Z,9.30
2019-02-21T15:12:47.105Z,9.20
2019-02-21T15:15:23.982Z,9.30
2019-02-21T15:17:52.527Z,9.30
2019-02-21T15:20:22.273Z,9.30
2019-02-21T15:22:53.875Z,9.20
2019-02-21T15:25:22.107Z,9.20
2019-02-21T15:27:51.983Z,9.20
2019-02-21T15:30:23.068Z,9.30
2019-02-21T15:32:51.619Z,9.20
2019-02-21T15:35:20.135Z,9.20
2019-02-21T15:37:49.661Z,9.10
2019-02-21T15:40:18.225Z,9.10
2019-02-21T15:42:47.719Z,9.10
2019-02-21T15:45:34.475Z,9.00
2019-02-21T15:48:22.291Z,9.00
2019-02-21T15:50:51.783Z,9.00
2019-02-21T15:53:21.583Z,9.00
2019-02-21T15:55:51.497Z,9.00
2019-02-21T15:58:20.034Z,8.90
2019-02-21T16:00:49.961Z,8.90
2019-02-21T16:03:37.795Z,8.90
2019-02-21T16:06:06.298Z,9.00
2019-02-21T16:08:34.795Z,9.00
2019-02-21T16:11:04.220Z,9.00
2019-02-21T16:13:34.138Z,9.00
2019-02-21T16:16:02.785Z,8.90
2019-02-21T16:18:31.307Z,8.80
2019-02-21T16:20:59.802Z,8.80
2019-02-21T16:23:28.377Z,8.70
2019-02-21T16:25:57.885Z,8.70
2019-02-21T16:28:29.136Z,8.70
2019-02-21T16:30:59.212Z,8.70
2019-02-21T16:33:27.719Z,8.60
2019-02-21T16:35:56.235Z,8.60
2019-02-21T16:38:24.896Z,8.70
2019-02-21T16:40:54.365Z,8.60
2019-02-21T16:43:22.898Z,8.60
2019-02-21T16:45:53.839Z,8.60
2019-02-21T16:48:23.140Z,8.70
2019-02-21T16:50:51.669Z,8.60
2019-02-21T16:53:21.256Z,8.50
2019-02-21T16:55:50.810Z,8.40
2019-02-21T16:58:19.289Z,8.40
2019-02-21T17:00:52.783Z,8.30
2019-02-21T17:03:18.002Z,8.30
2019-02-21T17:05:47.852Z,8.10
2019-02-21T17:08:17.372Z,7.90
2019-02-21T17:10:45.835Z,7.70
2019-02-21T17:13:15.676Z,7.60
2019-02-21T17:15:44.260Z,7.50
2019-02-21T17:18:13.940Z,7.40
2019-02-21T17:20:43.840Z,7.50
2019-02-21T17:23:22.553Z,7.40
2019-02-21T17:25:45.017Z,7.30
2019-02-21T17:28:14.920Z,7.40
2019-02-21T17:30:44.432Z,7.30
2019-02-21T17:33:12.958Z,7.50
2019-02-21T17:35:42.606Z,7.50
2019-02-21T17:38:11.123Z,7.50
2019-02-21T17:40:39.588Z,7.40
2019-02-21T17:43:08.056Z,7.40
2019-02-21T17:45:37.585Z,7.30
2019-02-21T17:48:07.774Z,7.20
2019-02-21T17:50:36.357Z,7.20
2019-02-21T17:53:04.980Z,7.20
2019-02-21T17:55:35.091Z,7.10
2019-02-21T17:58:04.673Z,7.00
2019-02-21T18:00:40.079Z,6.90
2019-02-21T18:03:09.959Z,6.90
2019-02-21T18:05:38.878Z,6.90
2019-02-21T18:08:07.661Z,6.80
2019-02-21T18:10:41.961Z,6.80
2019-02-21T18:13:12.032Z,6.70
2019-02-21T18:15:41.897Z,6.70
2019-02-21T18:18:10.397Z,6.70
2019-02-21T18:20:40.136Z,6.70
2019-02-21T18:23:12.356Z,6.70
2019-02-21T18:26:06.210Z,6.70
2019-02-21T18:28:36.318Z,6.70
2019-02-21T18:31:06.295Z,6.60
2019-02-21T18:33:36.130Z,6.60
2019-02-21T18:36:05.969Z,6.60
2019-02-21T18:38:34.450Z,6.50
2019-02-21T18:41:02.949Z,6.50
2019-02-21T18:43:31.723Z,6.50
2019-02-21T18:46:01.776Z,6.60
2019-02-21T18:48:33.842Z,6.70
2019-02-21T18:51:02.402Z,6.70
2019-02-21T18:53:30.877Z,6.80
2019-02-21T18:56:00.897Z,6.80
2019-02-21T18:58:30.910Z,6.90
2019-02-21T19:01:00.774Z,6.80
2019-02-21T19:03:29.609Z,6.90
2019-02-21T19:05:59.053Z,6.90
2019-02-21T19:08:29.023Z,6.90
2019-02-21T19:11:00.571Z,6.80
2019-02-21T19:13:30.004Z,6.90
2019-02-21T19:15:58.499Z,6.80
2019-02-21T19:18:28.523Z,6.90
2019-02-21T19:20:58.439Z,6.90
2019-02-21T19:23:26.992Z,7.00
2019-02-21T19:25:55.518Z,7.10
2019-02-21T19:28:25.002Z,7.10
2019-02-21T19:31:03.733Z,7.10
2019-02-21T19:33:33.524Z,7.00
2019-02-21T19:36:03.047Z,7.10
2019-02-21T19:38:32.654Z,7.10
2019-02-21T19:41:02.375Z,7.10
2019-02-21T19:43:30.922Z,7.00
2019-02-21T19:46:00.429Z,6.90
2019-02-21T19:48:30.390Z,6.90
2019-02-21T19:51:00.011Z,6.90
2019-02-21T19:53:28.592Z,6.90
2019-02-21T19:56:03.162Z,6.90
2019-02-21T19:58:31.940Z,6.90
2019-02-21T20:01:01.624Z,6.80
2019-02-21T20:03:31.257Z,6.80
2019-02-21T20:05:59.844Z,6.80
2019-02-21T20:08:30.009Z,6.80
2019-02-21T20:10:59.632Z,6.80
2019-02-21T20:13:29.407Z,6.70
2019-02-21T20:15:58.231Z,6.70
2019-02-21T20:18:27.967Z,6.70
2019-02-21T20:20:56.518Z,6.60
2019-02-21T20:23:26.518Z,6.40
2019-02-21T20:25:55.297Z,6.50
2019-02-21T20:28:25.123Z,6.40
2019-02-21T20:30:54.634Z,6.40
2019-02-21T20:33:23.361Z,6.40
2019-02-21T20:35:51.817Z,6.30
2019-02-21T20:38:31.558Z,6.30
2019-02-21T20:40:54.884Z,6.30
2019-02-21T20:43:23.359Z,6.40
2019-02-21T20:45:53.853Z,6.30
2019-02-21T20:48:23.486Z,6.40
2019-02-21T20:50:56.790Z,6.40
2019-02-21T20:53:22.266Z,6.60
2019-02-21T20:55:52.178Z,6.60
2019-02-21T20:58:20.761Z,6.50
2019-02-21T21:00:50.431Z,6.60
2019-02-21T21:03:20.048Z,6.70
2019-02-21T21:05:49.744Z,6.70
2019-02-21T21:08:21.252Z,6.80
2019-02-21T21:10:51.313Z,6.80
2019-02-21T21:13:19.800Z,6.90
2019-02-21T21:15:49.604Z,6.80
2019-02-21T21:18:19.434Z,6.80
2019-02-21T21:20:48.259Z,6.90
2019-02-21T21:23:16.733Z,7.00
2019-02-21T21:25:46.174Z,7.10
2019-02-21T21:28:17.422Z,7.10
2019-02-21T21:30:49.036Z,7.10
2019-02-21T21:33:17.584Z,7.20
2019-02-21T21:35:47.390Z,7.10
2019-02-21T21:38:24.283Z,7.10
2019-02-21T21:40:48.635Z,7.10
2019-02-21T21:43:18.803Z,7.20
2019-02-21T21:45:47.382Z,7.10
2019-02-21T21:48:17.253Z,7.10
2019-02-21T21:50:46.753Z,7.10
2019-02-21T21:53:15.593Z,7.00
2019-02-21T21:55:44.060Z,7.00
2019-02-21T21:58:13.034Z,7.00
2019-02-21T22:00:44.035Z,7.10
2019-02-21T22:03:12.569Z,7.10
2019-02-21T22:05:41.048Z,7.10
2019-02-21T22:08:09.599Z,7.20
2019-02-21T22:10:38.067Z,7.30
2019-02-21T22:13:06.517Z,7.20
2019-02-21T22:15:35.019Z,7.20
2019-02-21T22:18:03.475Z,7.10
2019-02-21T22:20:31.940Z,7.00
2019-02-21T22:23:02.179Z,7.10
2019-02-21T22:25:30.705Z,7.10
2019-02-21T22:27:59.251Z,7.20
2019-02-21T22:30:27.712Z,7.20
2019-02-21T22:32:56.161Z,7.20
2019-02-21T22:35:24.637Z,7.10
2019-02-21T22:37:53.093Z,7.20
2019-02-21T22:40:21.633Z,7.10
2019-02-21T22:42:50.441Z,7.10
2019-02-21T22:45:19.038Z,7.10
2019-02-21T22:47:47.518Z,7.10
2019-02-21T22:50:18.221Z,7.20
2019-02-21T22:52:46.782Z,7.20
2019-02-21T22:55:15.236Z,7.20
2019-02-21T22:57:43.757Z,7.30
2019-02-21T23:00:36.633Z,7.20
2019-02-21T23:03:08.153Z,7.20
2019-02-21T23:06:00.706Z,7.10
2019-02-21T23:08:45.146Z,7.00
2019-02-21T23:11:13.776Z,7.00
2019-02-21T23:13:42.391Z,7.00
2019-02-21T23:16:10.935Z,7.00
2019-02-21T23:18:39.397Z,7.00
2019-02-21T23:21:08.035Z,7.00
2019-02-21T23:23:36.499Z,7.10
2019-02-21T23:26:05.090Z,7.00
2019-02-21T23:28:33.575Z,7.10
2019-02-21T23:31:02.029Z,7.10
2019-02-21T23:33:32.090Z,7.00
2019-02-21T23:36:00.817Z,6.90
2019-02-21T23:38:29.335Z,7.10
2019-02-21T23:40:57.816Z,7.00
2019-02-21T23:43:26.284Z,7.00
2019-02-21T23:45:55.267Z,6.90
2019-02-21T23:48:23.740Z,7.20
2019-02-21T23:50:52.205Z,7.10
2019-02-21T23:53:20.691Z,7.20
2019-02-21T23:55:49.149Z,7.10
2019-02-21T23:58:17.632Z,7.10
